Terminal Aerodrome Forecast
Issued by NWS Oklahoma City, OK

Home | Current Version | Previous Version | Text Only | Print | Product List | Glossary On
Versions: 1 2 3 4 5 6 7 8 9 10 11 12
000
FTUS44 KOUN 260520
TAFOUN
TAF
KOUN 260520Z 2606/2706 19008KT P6SM SKC
     FM261500 19021G30KT P6SM SCT250
     FM270000 18015G21KT P6SM BKN250=

USA.gov is the U.S. government's official web portal to all federal, state and local government web resources and services.